createdAt,value
2018-11-14T00:01:18.128Z,91.47
2018-11-14T00:04:21.634Z,90.56
2018-11-14T00:07:25.113Z,90.83
2018-11-14T00:10:28.520Z,90.35
2018-11-14T00:13:32.087Z,89.88
2018-11-14T00:16:35.756Z,90.24
2018-11-14T00:19:39.585Z,90.70
2018-11-14T00:22:44.304Z,90.50
2018-11-14T00:25:47.926Z,90.47
2018-11-14T00:28:51.383Z,90.52
2018-11-14T00:31:54.879Z,90.30
2018-11-14T00:34:58.887Z,90.70
2018-11-14T00:38:01.947Z,89.82
2018-11-14T00:41:05.390Z,90.64
2018-11-14T00:44:08.780Z,90.59
2018-11-14T00:47:12.180Z,89.99
2018-11-14T00:50:16.437Z,90.26
2018-11-14T00:53:19.902Z,90.00
2018-11-14T00:56:23.371Z,89.81
2018-11-14T00:59:26.913Z,89.99
2018-11-14T01:02:30.334Z,90.50
2018-11-14T01:05:34.884Z,91.81
2018-11-14T01:08:38.403Z,91.09
2018-11-14T01:11:42.986Z,92.34
2018-11-14T01:14:46.579Z,92.01
2018-11-14T01:17:50.086Z,89.95
2018-11-14T01:20:53.488Z,91.07
2018-11-14T01:23:58.175Z,91.58
2018-11-14T01:27:01.804Z,92.78
2018-11-14T01:30:08.400Z,91.48
2018-11-14T01:33:11.974Z,92.40
2018-11-14T01:36:15.502Z,92.95
2018-11-14T01:39:19.062Z,93.84
2018-11-14T01:42:22.628Z,93.71
2018-11-14T01:45:28.123Z,93.56
2018-11-14T01:48:33.609Z,93.66
2018-11-14T01:51:38.221Z,93.50
2018-11-14T01:54:41.688Z,92.41
2018-11-14T01:57:45.213Z,92.66
2018-11-14T02:00:48.690Z,92.76
2018-11-14T02:03:52.183Z,93.76
2018-11-14T02:06:55.699Z,93.33
2018-11-14T02:09:59.260Z,93.62
2018-11-14T02:13:02.784Z,93.53
2018-11-14T02:16:06.979Z,93.15
2018-11-14T02:19:10.412Z,92.33
2018-11-14T02:22:15.125Z,91.42
2018-11-14T02:25:18.801Z,92.83
2018-11-14T02:28:22.346Z,92.84
2018-11-14T02:31:25.929Z,91.18
2018-11-14T02:34:29.580Z,92.70
2018-11-14T02:37:33.090Z,93.22
2018-11-14T02:40:36.696Z,93.21
2018-11-14T02:43:40.380Z,93.23
2018-11-14T02:46:43.967Z,94.99
2018-11-14T02:49:47.561Z,94.70
2018-11-14T02:52:51.103Z,93.92
2018-11-14T02:56:09.552Z,95.63
2018-11-14T02:59:13.096Z,96.10
2018-11-14T03:02:16.640Z,96.47
2018-11-14T03:05:20.257Z,97.01
2018-11-14T03:08:24.037Z,96.09
2018-11-14T03:11:27.541Z,97.48
2018-11-14T03:14:31.172Z,96.17
2018-11-14T03:17:34.709Z,95.85
2018-11-14T03:20:38.378Z,96.73
2018-11-14T03:23:42.021Z,98.50
2018-11-14T03:26:45.522Z,99.08
2018-11-14T03:29:49.122Z,99.07
2018-11-14T03:32:52.674Z,99.12
2018-11-14T03:36:01.641Z,100.00
2018-11-14T03:39:08.646Z,100.00
2018-11-14T03:42:12.228Z,100.00
2018-11-14T03:45:16.303Z,100.00
2018-11-14T03:48:19.840Z,100.00
2018-11-14T03:51:23.441Z,100.00
2018-11-14T03:54:27.004Z,100.00
2018-11-14T03:57:30.560Z,100.00
2018-11-14T04:00:34.160Z,100.00
2018-11-14T04:03:38.312Z,100.00
2018-11-14T04:06:41.814Z,100.00
2018-11-14T04:09:45.568Z,100.00
2018-11-14T04:12:49.507Z,100.00
2018-11-14T04:15:54.128Z,100.00
2018-11-14T04:18:57.777Z,100.00
2018-11-14T04:22:01.314Z,100.00
2018-11-14T04:25:05.345Z,100.00
2018-11-14T04:28:08.897Z,100.00
2018-11-14T04:31:13.481Z,100.00
2018-11-14T04:34:17.002Z,100.00
2018-11-14T04:37:20.532Z,100.00
2018-11-14T04:40:24.942Z,100.00
2018-11-14T04:43:28.825Z,100.00
2018-11-14T04:46:32.395Z,100.00
2018-11-14T04:49:36.025Z,100.00
2018-11-14T04:52:39.829Z,100.00
2018-11-14T04:55:43.437Z,100.00
2018-11-14T04:58:46.877Z,100.00
2018-11-14T05:01:50.761Z,100.00
2018-11-14T05:04:55.613Z,100.00
2018-11-14T05:11:46.177Z,100.00
2018-11-14T05:15:13.449Z,100.00
2018-11-14T05:18:33.731Z,100.00
2018-11-14T05:25:14.835Z,100.00
2018-11-14T05:28:34.479Z,100.00
2018-11-14T05:35:19.106Z,100.00
2018-11-14T05:38:41.816Z,100.00
2018-11-14T05:45:43.836Z,100.00
2018-11-14T05:49:09.980Z,100.00
2018-11-14T05:52:31.013Z,100.00
2018-11-14T05:55:56.816Z,100.00
2018-11-14T06:03:31.032Z,100.00
2018-11-14T06:06:55.921Z,100.00
2018-11-14T06:10:20.299Z,100.00
2018-11-14T06:13:37.790Z,100.00
2018-11-14T06:16:57.290Z,100.00
2018-11-14T06:20:19.173Z,100.00
2018-11-14T06:23:38.175Z,100.00
2018-11-14T06:26:55.845Z,100.00
2018-11-14T06:30:16.415Z,100.00
2018-11-14T06:33:39.666Z,100.00
2018-11-14T06:37:02.000Z,99.31
2018-11-14T06:40:30.940Z,99.40
2018-11-14T06:47:20.410Z,99.57
2018-11-14T06:50:44.528Z,99.85
2018-11-14T06:54:04.601Z,97.63
2018-11-14T06:57:23.331Z,95.30
2018-11-14T07:00:37.962Z,94.83
2018-11-14T07:03:52.969Z,93.53
2018-11-14T07:07:02.972Z,94.96
2018-11-14T07:10:23.883Z,97.31
2018-11-14T07:13:38.771Z,96.74
2018-11-14T07:16:53.538Z,98.38
2018-11-14T07:20:06.048Z,97.47
2018-11-14T07:30:18.820Z,98.20
2018-11-14T07:33:22.543Z,97.61
2018-11-14T07:36:26.185Z,96.96
2018-11-14T07:39:29.647Z,98.21
2018-11-14T07:42:33.182Z,97.99
2018-11-14T07:45:36.799Z,98.25
2018-11-14T07:48:41.530Z,97.85
2018-11-14T07:51:45.091Z,98.02
2018-11-14T07:54:48.578Z,97.84
2018-11-14T07:57:52.013Z,97.11
2018-11-14T08:00:56.119Z,96.94
2018-11-14T08:04:00.230Z,97.04
2018-11-14T08:07:03.979Z,96.26
2018-11-14T08:10:09.844Z,96.36
2018-11-14T08:13:13.561Z,96.75
2018-11-14T08:16:17.268Z,96.64
2018-11-14T08:19:20.965Z,97.00
2018-11-14T08:22:24.674Z,95.91
2018-11-14T08:25:30.642Z,96.18
2018-11-14T08:28:34.332Z,96.75
2018-11-14T08:31:37.961Z,97.01
2018-11-14T08:34:41.673Z,96.59
2018-11-14T08:37:45.432Z,96.13
2018-11-14T08:40:48.976Z,96.30
2018-11-14T08:43:53.385Z,96.33
2018-11-14T08:46:56.852Z,96.42
2018-11-14T08:50:00.361Z,96.27
2018-11-14T08:53:04.181Z,96.32
2018-11-14T08:56:07.864Z,96.17
2018-11-14T08:59:12.436Z,95.22
2018-11-14T09:02:16.051Z,95.58
2018-11-14T09:05:19.521Z,94.94
2018-11-14T09:08:23.069Z,94.41
2018-11-14T09:11:26.826Z,94.10
2018-11-14T09:14:30.618Z,94.25
2018-11-14T09:17:35.121Z,93.62
2018-11-14T09:20:38.754Z,93.63
2018-11-14T09:23:42.273Z,93.99
2018-11-14T09:26:45.774Z,92.67
2018-11-14T09:29:49.389Z,92.69
2018-11-14T09:32:53.053Z,92.53
2018-11-14T09:35:56.493Z,93.04
2018-11-14T09:39:00.097Z,91.83
2018-11-14T09:42:03.831Z,91.73
2018-11-14T09:45:09.607Z,90.48
2018-11-14T09:48:13.213Z,90.17
2018-11-14T09:51:16.756Z,89.35
2018-11-14T09:54:20.313Z,88.62
2018-11-14T09:57:23.688Z,88.76
2018-11-14T10:00:28.555Z,89.04
2018-11-14T10:03:32.141Z,88.42
2018-11-14T10:06:35.566Z,87.97
2018-11-14T10:09:39.378Z,86.78
2018-11-14T10:12:43.184Z,85.88
2018-11-14T10:15:46.864Z,85.61
2018-11-14T10:18:51.568Z,85.90
2018-11-14T10:21:55.318Z,85.66
2018-11-14T10:24:58.838Z,85.82
2018-11-14T10:28:02.434Z,85.35
2018-11-14T10:31:06.097Z,84.66
2018-11-14T10:34:09.594Z,84.64
2018-11-14T10:37:14.141Z,84.00
2018-11-14T10:40:20.483Z,83.77
2018-11-14T10:43:24.047Z,83.02
2018-11-14T10:46:27.735Z,83.45
2018-11-14T10:49:31.404Z,81.96
2018-11-14T10:52:34.887Z,81.84
2018-11-14T10:55:38.866Z,82.12
2018-11-14T10:58:42.508Z,81.46
2018-11-14T11:01:51.361Z,81.55
2018-11-14T11:05:00.234Z,81.00
2018-11-14T11:08:09.505Z,80.91
2018-11-14T11:11:19.480Z,80.72
2018-11-14T11:14:28.333Z,79.52
2018-11-14T11:17:37.180Z,78.33
2018-11-14T11:20:40.881Z,77.52
2018-11-14T11:23:44.449Z,77.48
2018-11-14T11:26:48.099Z,77.23
2018-11-14T11:29:51.706Z,76.15
2018-11-14T11:32:55.172Z,76.31
2018-11-14T11:35:58.720Z,76.69
2018-11-14T11:39:02.546Z,76.34
2018-11-14T11:42:06.332Z,75.94
2018-11-14T11:45:09.864Z,76.31
2018-11-14T11:48:13.468Z,76.63
2018-11-14T11:51:17.022Z,75.30
2018-11-14T11:54:20.543Z,75.77
2018-11-14T11:57:24.013Z,76.56
2018-11-14T12:00:27.622Z,76.23
2018-11-14T12:03:31.014Z,75.63
2018-11-14T12:06:34.622Z,75.26
2018-11-14T12:09:38.047Z,74.14
2018-11-14T12:12:42.356Z,73.46
2018-11-14T12:15:46.061Z,73.65
2018-11-14T12:18:49.710Z,73.25
2018-11-14T12:21:53.480Z,73.21
2018-11-14T12:24:57.195Z,73.37
2018-11-14T12:28:00.671Z,73.79
2018-11-14T12:31:05.729Z,73.81
2018-11-14T12:34:09.019Z,74.23
2018-11-14T12:37:12.598Z,74.30
2018-11-14T12:40:16.091Z,74.39
2018-11-14T12:43:19.674Z,74.87
2018-11-14T12:46:23.054Z,74.37
2018-11-14T12:49:26.532Z,73.79
2018-11-14T12:52:30.065Z,73.58
2018-11-14T12:55:33.568Z,73.31
2018-11-14T12:58:37.105Z,73.30
2018-11-14T13:01:40.644Z,73.68
2018-11-14T13:04:44.072Z,73.42
2018-11-14T13:07:47.653Z,73.02
2018-11-14T13:10:51.197Z,72.95
2018-11-14T13:13:54.694Z,71.47
2018-11-14T13:16:58.094Z,71.54
2018-11-14T13:20:01.684Z,71.08
2018-11-14T13:23:05.159Z,70.63
2018-11-14T13:26:11.079Z,69.88
2018-11-14T13:29:14.604Z,68.50
2018-11-14T13:32:18.295Z,68.29
2018-11-14T13:35:22.650Z,67.21
2018-11-14T13:38:26.155Z,67.24
2018-11-14T13:41:30.752Z,66.81
2018-11-14T13:44:34.287Z,65.72
2018-11-14T13:47:38.268Z,66.21
2018-11-14T13:50:42.038Z,65.99
2018-11-14T13:53:46.018Z,67.93
2018-11-14T13:56:49.592Z,71.44
2018-11-14T13:59:53.041Z,74.64
2018-11-14T14:02:56.537Z,76.69
2018-11-14T14:06:00.025Z,78.34
2018-11-14T14:09:05.073Z,80.28
2018-11-14T14:12:08.639Z,82.27
2018-11-14T14:15:17.332Z,84.12
2018-11-14T14:18:20.805Z,85.32
2018-11-14T14:21:24.588Z,85.94
2018-11-14T14:24:28.018Z,86.62
2018-11-14T14:27:31.721Z,86.84
2018-11-14T14:30:35.291Z,86.81
2018-11-14T14:33:38.788Z,88.19
2018-11-14T14:36:42.561Z,90.19
2018-11-14T14:39:46.036Z,90.42
2018-11-14T14:42:49.578Z,90.30
2018-11-14T14:45:53.051Z,90.85
2018-11-14T14:48:56.543Z,93.56
2018-11-14T14:52:00.074Z,95.96
2018-11-14T14:55:03.563Z,97.46
2018-11-14T14:58:07.058Z,98.74
2018-11-14T15:01:10.608Z,99.96
2018-11-14T15:04:14.043Z,100.00
2018-11-14T15:07:17.483Z,100.00
2018-11-14T15:10:22.306Z,100.00
2018-11-14T15:13:25.767Z,100.00
2018-11-14T15:16:29.436Z,100.00
2018-11-14T15:19:32.925Z,100.00
2018-11-14T15:22:36.391Z,100.00
2018-11-14T15:25:39.834Z,100.00
2018-11-14T15:28:43.298Z,100.00
2018-11-14T15:31:46.916Z,100.00
2018-11-14T15:34:50.469Z,100.00
2018-11-14T15:37:54.012Z,100.00
2018-11-14T15:40:57.574Z,100.00
2018-11-14T15:44:01.149Z,100.00
2018-11-14T15:47:04.824Z,100.00
2018-11-14T15:50:13.713Z,100.00
2018-11-14T15:53:17.214Z,100.00
2018-11-14T15:56:20.947Z,100.00
2018-11-14T15:59:24.472Z,100.00
2018-11-14T16:02:29.062Z,100.00
2018-11-14T16:05:33.629Z,100.00
2018-11-14T16:08:37.118Z,100.00
2018-11-14T16:11:40.703Z,100.00
2018-11-14T16:14:44.248Z,100.00
2018-11-14T16:17:47.942Z,100.00
2018-11-14T16:20:51.482Z,100.00
2018-11-14T16:23:55.014Z,100.00
2018-11-14T16:26:58.564Z,100.00
2018-11-14T16:30:02.362Z,100.00
2018-11-14T16:33:07.162Z,100.00
2018-11-14T16:36:10.817Z,100.00
2018-11-14T16:39:14.358Z,100.00
2018-11-14T16:42:18.110Z,100.00
2018-11-14T16:45:21.670Z,100.00
2018-11-14T16:48:25.212Z,100.00
2018-11-14T16:51:28.752Z,100.00
2018-11-14T16:54:32.298Z,100.00
2018-11-14T16:57:36.420Z,100.00
2018-11-14T17:00:41.008Z,100.00
2018-11-14T17:03:45.845Z,100.00
2018-11-14T17:06:49.403Z,100.00
2018-11-14T17:09:53.060Z,100.00
2018-11-14T17:12:58.399Z,100.00
2018-11-14T17:16:02.164Z,100.00
2018-11-14T17:19:06.161Z,100.00
2018-11-14T17:22:09.726Z,100.00
2018-11-14T17:25:14.293Z,100.00
2018-11-14T17:28:17.913Z,100.00
2018-11-14T17:31:21.359Z,100.00
2018-11-14T17:34:24.904Z,100.00
2018-11-14T17:37:28.529Z,100.00
2018-11-14T17:40:32.337Z,100.00
2018-11-14T17:43:35.819Z,100.00
2018-11-14T17:46:39.309Z,100.00
2018-11-14T17:49:42.840Z,100.00
2018-11-14T17:52:47.242Z,100.00
2018-11-14T17:55:50.712Z,100.00
2018-11-14T17:58:54.306Z,100.00
2018-11-14T18:01:57.752Z,100.00
2018-11-14T18:05:01.216Z,100.00
2018-11-14T18:08:05.115Z,100.00
2018-11-14T18:11:08.583Z,100.00
2018-11-14T18:14:12.080Z,100.00
2018-11-14T18:17:15.581Z,100.00
2018-11-14T18:20:21.168Z,100.00
2018-11-14T18:23:24.953Z,100.00
2018-11-14T18:26:28.972Z,100.00
2018-11-14T18:29:32.883Z,100.00
2018-11-14T18:32:36.513Z,100.00
2018-11-14T18:35:40.205Z,100.00
2018-11-14T18:38:44.470Z,99.54
2018-11-14T18:41:48.752Z,98.10
2018-11-14T18:44:52.666Z,99.21
2018-11-14T18:47:57.110Z,99.21
2018-11-14T18:51:00.625Z,98.47
2018-11-14T18:54:04.173Z,97.84
2018-11-14T18:57:07.706Z,97.32
2018-11-14T19:00:14.849Z,97.48
2018-11-14T19:03:18.782Z,97.45
2018-11-14T19:06:22.321Z,97.21
2018-11-14T19:09:25.850Z,96.26
2018-11-14T19:12:29.363Z,95.65
2018-11-14T19:15:34.278Z,95.00
2018-11-14T19:18:37.969Z,95.40
2018-11-14T19:21:41.449Z,95.55
2018-11-14T19:24:45.048Z,95.49
2018-11-14T19:27:49.056Z,94.98
2018-11-14T19:30:52.656Z,94.97
2018-11-14T19:33:56.196Z,94.65
2018-11-14T19:36:59.784Z,95.45
2018-11-14T19:40:03.374Z,97.18
2018-11-14T19:43:12.408Z,98.28
2018-11-14T19:46:16.025Z,98.18
2018-11-14T19:49:20.025Z,98.01
2018-11-14T19:52:24.808Z,97.56
2018-11-14T19:55:29.477Z,97.10
2018-11-14T19:58:33.252Z,96.88
2018-11-14T20:01:37.271Z,96.39
2018-11-14T20:04:40.986Z,95.77
2018-11-14T20:07:45.228Z,95.52
2018-11-14T20:10:48.981Z,95.70
2018-11-14T20:13:53.467Z,94.90
2018-11-14T20:16:57.089Z,95.21
2018-11-14T20:20:03.035Z,95.06
2018-11-14T20:23:06.547Z,94.33
2018-11-14T20:26:10.173Z,94.24
2018-11-14T20:29:13.652Z,93.80
2018-11-14T20:32:17.328Z,94.55
2018-11-14T20:35:21.701Z,94.41
2018-11-14T20:38:25.249Z,94.45
2018-11-14T20:41:28.905Z,94.76
2018-11-14T20:44:32.548Z,94.76
2018-11-14T20:47:35.993Z,94.20
2018-11-14T20:50:40.593Z,94.53
2018-11-14T20:53:44.155Z,94.39
2018-11-14T20:56:47.682Z,94.57
2018-11-14T20:59:51.265Z,94.66
2018-11-14T21:02:56.508Z,94.77
2018-11-14T21:06:00.097Z,94.96
2018-11-14T21:09:04.667Z,94.75
2018-11-14T21:12:08.196Z,94.70
2018-11-14T21:15:14.974Z,94.69
2018-11-14T21:18:18.382Z,95.16
2018-11-14T21:21:22.089Z,94.85
2018-11-14T21:24:25.797Z,94.98
2018-11-14T21:27:29.545Z,94.79
2018-11-14T21:30:33.179Z,94.41
2018-11-14T21:33:36.745Z,94.19
2018-11-14T21:36:40.415Z,94.18
2018-11-14T21:39:44.019Z,94.38
2018-11-14T21:42:47.540Z,94.53
2018-11-14T21:45:51.175Z,94.74
2018-11-14T21:48:54.799Z,94.29
2018-11-14T21:51:59.368Z,94.79
2018-11-14T21:55:03.185Z,94.72
2018-11-14T21:58:06.914Z,94.47
2018-11-14T22:01:10.639Z,94.42
2018-11-14T22:04:16.261Z,94.12
2018-11-14T22:07:19.861Z,94.50
2018-11-14T22:10:24.186Z,94.12
2018-11-14T22:13:28.795Z,93.71
2018-11-14T22:16:32.338Z,93.59
2018-11-14T22:19:36.303Z,93.82
2018-11-14T22:22:40.532Z,94.23
2018-11-14T22:25:44.341Z,93.80
2018-11-14T22:28:47.842Z,93.96
2018-11-14T22:31:51.387Z,94.17
2018-11-14T22:34:55.016Z,94.08
2018-11-14T22:37:58.579Z,93.96
2018-11-14T22:41:03.200Z,94.28
2018-11-14T22:44:06.862Z,93.91
2018-11-14T22:47:10.432Z,94.13
2018-11-14T22:50:15.233Z,93.65
2018-11-14T22:53:18.674Z,93.39
2018-11-14T22:56:22.205Z,93.30
2018-11-14T22:59:25.770Z,93.15
2018-11-14T23:02:29.365Z,92.89
2018-11-14T23:05:32.958Z,92.92
2018-11-14T23:08:36.449Z,92.88
2018-11-14T23:11:40.131Z,92.69
2018-11-14T23:14:43.755Z,92.66
2018-11-14T23:17:47.363Z,92.00
2018-11-14T23:20:50.890Z,92.61
2018-11-14T23:23:54.432Z,92.69
2018-11-14T23:26:57.975Z,92.41
2018-11-14T23:30:01.422Z,91.55
2018-11-14T23:33:05.084Z,91.43
2018-11-14T23:36:08.587Z,91.07
2018-11-14T23:39:13.723Z,91.28
2018-11-14T23:42:17.332Z,91.41
2018-11-14T23:45:21.743Z,91.38
2018-11-14T23:48:25.257Z,91.53
2018-11-14T23:51:28.813Z,91.42
2018-11-14T23:54:32.315Z,91.13
2018-11-14T23:57:35.818Z,91.33
